Time;durP1;ratioP1;P1;durP2;ratioP2;P2;SDS_P1;SDS_P2;PMS_P1;PMS_P2;Temp;Humidity;BMP_temperature;BMP_pressure;BME280_temperature;BME280_humidity;BME280_pressure;Samples;Min_cycle;Max_cycle;Signal;HPM_P1;HPM_P2
2021/08/11 00:01:19;;;;;;;4.22;3.83;;;21.60;75.10;;;;;;4207550;28;20044;-62
2021/08/11 00:03:41;;;;;;;4.13;3.83;;;21.60;75.00;;;;;;4210532;28;20400;-61
2021/08/11 00:06:04;;;;;;;6.22;4.28;;;21.60;74.90;;;;;;4202389;28;20082;-62
2021/08/11 00:08:26;;;;;;;4.47;4.07;;;21.60;74.80;;;;;;4210847;28;20783;-61
2021/08/11 00:10:49;;;;;;;4.03;3.72;;;21.60;75.00;;;;;;4210649;28;20402;-62
2021/08/11 00:13:10;;;;;;;4.05;3.67;;;21.60;74.90;;;;;;4210986;28;20070;-61
2021/08/11 00:15:33;;;;;;;6.07;4.13;;;21.50;74.80;;;;;;4211030;28;20560;-61
2021/08/11 00:17:55;;;;;;;4.38;4.00;;;21.50;74.90;;;;;;4210594;28;20080;-62
2021/08/11 00:20:17;;;;;;;4.22;3.85;;;21.50;74.90;;;;;;4209929;28;20109;-62
2021/08/11 00:22:41;;;;;;;5.03;4.25;;;21.50;74.90;;;;;;4210668;28;20058;-61
2021/08/11 00:25:04;;;;;;;4.75;4.30;;;21.50;74.90;;;;;;4193862;28;20494;-61
2021/08/11 00:27:25;;;;;;;4.88;4.38;;;21.50;75.00;;;;;;4193811;28;20048;-61
2021/08/11 00:29:48;;;;;;;4.65;4.25;;;21.50;75.00;;;;;;4193694;28;20155;-61
2021/08/11 00:32:10;;;;;;;4.40;4.10;;;21.50;75.10;;;;;;4193598;28;20106;-61
2021/08/11 00:34:32;;;;;;;5.20;4.70;;;21.50;75.10;;;;;;4197675;28;20040;-61
2021/08/11 00:36:54;;;;;;;4.90;4.40;;;21.50;75.20;;;;;;4210428;28;20678;-61
2021/08/11 00:39:20;;;;;;;5.60;5.10;;;21.50;75.30;;;;;;4208678;28;20453;-60
2021/08/11 00:41:45;;;;;;;5.65;4.88;;;21.50;75.20;;;;;;4208854;28;20059;-61
2021/08/11 00:44:09;;;;;;;5.90;4.50;;;21.50;75.30;;;;;;4208542;28;20687;-60
2021/08/11 00:46:33;;;;;;;5.05;4.55;;;21.50;75.30;;;;;;4210227;28;20047;-61
2021/08/11 00:48:57;;;;;;;5.28;4.57;;;21.50;75.10;;;;;;4208567;28;20101;-61
2021/08/11 00:51:21;;;;;;;4.82;4.43;;;21.40;75.10;;;;;;4208735;28;20142;-60
2021/08/11 00:53:48;;;;;;;4.90;4.28;;;21.40;75.20;;;;;;4208504;28;20043;-61
2021/08/11 00:56:19;;;;;;;5.10;4.70;;;21.40;75.30;;;;;;4208305;28;20094;-61
2021/08/11 00:58:41;;;;;;;5.97;4.70;;;21.40;75.10;;;;;;4209578;28;20048;-61
2021/08/11 01:01:04;;;;;;;5.03;4.63;;;21.40;75.50;;;;;;4209741;28;20114;-61
2021/08/11 01:03:29;;;;;;;5.03;4.57;;;21.40;75.50;;;;;;4208212;28;20130;-61
2021/08/11 01:05:54;;;;;;;4.57;4.28;;;21.40;75.50;;;;;;4207409;28;20849;-60
2021/08/11 01:08:19;;;;;;;5.65;4.40;;;21.40;75.60;;;;;;4208634;28;20411;-60
2021/08/11 01:10:42;;;;;;;6.80;4.43;;;21.40;75.50;;;;;;4208248;28;20040;-61
2021/08/11 01:13:07;;;;;;;5.75;4.43;;;21.40;75.60;;;;;;4208100;28;20079;-60
2021/08/11 01:15:30;;;;;;;5.60;4.85;;;21.40;75.50;;;;;;4207737;28;20490;-61
2021/08/11 01:17:53;;;;;;;4.88;4.28;;;21.40;75.60;;;;;;4208317;28;20078;-61
2021/08/11 01:20:16;;;;;;;4.72;4.20;;;21.30;75.60;;;;;;4207892;28;20047;-61
2021/08/11 01:22:44;;;;;;;5.00;4.57;;;21.30;75.60;;;;;;4207950;28;20051;-61
2021/08/11 01:25:12;;;;;;;7.78;4.20;;;21.30;75.60;;;;;;4209104;28;20632;-60
2021/08/11 01:28:16;;;;;;;4.40;4.03;;;21.30;75.60;;;;;;4207976;28;20048;-61
2021/08/11 01:30:45;;;;;;;5.18;4.68;;;21.30;75.40;;;;;;4207486;28;20059;-62
2021/08/11 01:33:45;;;;;;;5.05;4.65;;;21.30;75.90;;;;;;4208927;28;20074;-61
2021/08/11 01:36:16;;;;;;;6.10;4.75;;;21.30;75.70;;;;;;4205498;28;20156;-61
2021/08/11 01:38:44;;;;;;;4.47;4.18;;;21.30;76.00;;;;;;4209262;28;20056;-61
2021/08/11 01:41:07;;;;;;;4.97;4.60;;;21.30;76.00;;;;;;4207769;28;20056;-61
2021/08/11 01:43:37;;;;;;;5.30;4.85;;;21.30;76.10;;;;;;4207957;28;20052;-61
2021/08/11 01:45:59;;;;;;;5.68;5.00;;;21.30;75.90;;;;;;4207608;28;20113;-61
2021/08/11 01:48:26;;;;;;;5.80;4.75;;;21.30;76.00;;;;;;4207872;28;20456;-62
2021/08/11 01:50:56;;;;;;;5.15;4.28;;;21.30;75.90;;;;;;4194222;28;20040;-61
2021/08/11 01:53:20;;;;;;;5.95;5.35;;;21.30;76.00;;;;;;4201342;28;20575;-61
2021/08/11 01:55:42;;;;;;;5.28;4.85;;;21.30;75.90;;;;;;4207442;28;20052;-61
2021/08/11 01:58:06;;;;;;;5.80;4.60;;;21.20;76.00;;;;;;4207363;28;20554;-61
2021/08/11 02:00:28;;;;;;;7.95;4.97;;;21.20;76.00;;;;;;4207692;28;20044;-61
2021/08/11 02:02:54;;;;;;;5.88;5.25;;;21.20;76.00;;;;;;4207460;28;20071;-61
2021/08/11 02:05:21;;;;;;;5.25;4.80;;;21.20;76.00;;;;;;4206897;28;20052;-61
2021/08/11 02:07:45;;;;;;;5.05;4.55;;;21.20;75.90;;;;;;4207660;28;20640;-61
2021/08/11 02:10:11;;;;;;;4.85;4.45;;;21.20;75.90;;;;;;4207284;28;20078;-62
2021/08/11 02:12:34;;;;;;;6.35;4.78;;;21.20;76.00;;;;;;4207031;28;20539;-62
2021/08/11 02:14:58;;;;;;;4.95;4.53;;;21.20;76.00;;;;;;4207642;28;20067;-61
2021/08/11 02:17:20;;;;;;;4.88;4.32;;;21.20;76.00;;;;;;4208478;28;20123;-62
2021/08/11 02:19:44;;;;;;;5.88;5.15;;;21.20;75.90;;;;;;4206957;28;20040;-61
2021/08/11 02:22:06;;;;;;;5.43;4.88;;;21.20;75.90;;;;;;4207266;28;20051;-61
2021/08/11 02:24:29;;;;;;;6.82;4.20;;;21.20;75.90;;;;;;4207495;28;20051;-61
2021/08/11 02:26:57;;;;;;;5.40;4.88;;;21.20;75.80;;;;;;4207111;28;20055;-61
2021/08/11 02:29:33;;;;;;;6.50;4.63;;;21.20;76.60;;;;;;4206960;28;20040;-61
2021/08/11 02:32:05;;;;;;;6.88;4.65;;;21.20;75.70;;;;;;4206848;28;20513;-61
2021/08/11 02:34:34;;;;;;;5.53;5.03;;;21.10;75.70;;;;;;4208007;28;20074;-60
2021/08/11 02:37:01;;;;;;;5.25;4.75;;;21.20;75.70;;;;;;4207312;28;20050;-62
2021/08/11 02:39:30;;;;;;;5.47;4.88;;;21.10;75.80;;;;;;4206437;28;20098;-61
2021/08/11 02:42:00;;;;;;;5.05;4.65;;;21.20;75.80;;;;;;4206648;28;20409;-61
2021/08/11 02:44:27;;;;;;;6.57;5.10;;;21.10;75.80;;;;;;4206472;28;20066;-61
2021/08/11 02:46:50;;;;;;;5.13;4.63;;;21.10;75.70;;;;;;4206802;28;20043;-62
2021/08/11 02:49:15;;;;;;;6.35;4.70;;;21.10;75.90;;;;;;4206501;28;20496;-61
2021/08/11 02:51:38;;;;;;;5.07;4.68;;;21.10;75.80;;;;;;4206907;28;20478;-61
2021/08/11 02:54:02;;;;;;;4.57;4.18;;;21.10;75.80;;;;;;4206760;28;20051;-62
2021/08/11 02:56:26;;;;;;;5.68;4.68;;;21.10;75.80;;;;;;4206482;28;20143;-61
2021/08/11 02:58:50;;;;;;;5.95;4.57;;;21.10;75.70;;;;;;4206546;28;20048;-61
2021/08/11 03:01:12;;;;;;;5.13;4.70;;;21.10;75.70;;;;;;4208003;28;20418;-61
2021/08/11 03:03:36;;;;;;;6.38;4.60;;;21.10;75.90;;;;;;4206366;28;20173;-61
2021/08/11 03:05:58;;;;;;;5.30;4.80;;;21.10;75.90;;;;;;4206801;28;20122;-61
2021/08/11 03:08:20;;;;;;;4.78;4.35;;;21.10;75.90;;;;;;4208031;28;20486;-62
2021/08/11 03:10:42;;;;;;;5.15;4.40;;;21.10;75.80;;;;;;4206777;28;20059;-61
2021/08/11 03:13:05;;;;;;;5.63;4.65;;;21.10;75.90;;;;;;4206534;28;20139;-62
2021/08/11 03:15:31;;;;;;;5.88;4.57;;;21.10;75.70;;;;;;4208003;28;20130;-61
2021/08/11 03:17:54;;;;;;;4.53;4.18;;;21.10;75.60;;;;;;4206812;28;20138;-61
2021/08/11 03:20:17;;;;;;;5.25;4.75;;;21.10;75.70;;;;;;4205592;28;20070;-61
2021/08/11 03:22:39;;;;;;;9.20;5.15;;;21.10;75.70;;;;;;4205899;28;20529;-61
2021/08/11 03:25:03;;;;;;;6.13;4.80;;;21.00;75.60;;;;;;4205984;28;20555;-61
2021/08/11 03:27:25;;;;;;;4.95;4.35;;;21.00;75.70;;;;;;4206437;28;20508;-60
2021/08/11 03:29:47;;;;;;;5.57;5.05;;;21.00;75.80;;;;;;4207855;28;20104;-61
2021/08/11 03:32:11;;;;;;;6.45;4.95;;;21.00;75.80;;;;;;4207876;28;20077;-61
2021/08/11 03:34:35;;;;;;;4.95;4.20;;;21.00;75.70;;;;;;4206147;28;20052;-61
2021/08/11 03:36:58;;;;;;;7.90;4.40;;;21.00;75.80;;;;;;4206534;28;20533;-61
2021/08/11 03:39:20;;;;;;;5.45;4.38;;;21.00;75.70;;;;;;4209942;28;20067;-61
2021/08/11 03:41:42;;;;;;;5.15;4.55;;;21.00;75.70;;;;;;4209542;28;20071;-61
2021/08/11 03:44:05;;;;;;;5.30;4.72;;;21.00;75.70;;;;;;4210017;28;20459;-61
2021/08/11 03:46:32;;;;;;;4.97;4.50;;;21.00;75.70;;;;;;4209866;28;20048;-60
2021/08/11 03:48:55;;;;;;;4.28;3.95;;;21.00;75.80;;;;;;4209382;28;20075;-61
2021/08/11 03:51:18;;;;;;;6.47;4.80;;;21.00;75.70;;;;;;4209617;28;20134;-61
2021/08/11 03:53:40;;;;;;;5.70;5.03;;;21.00;75.80;;;;;;4209608;28;20044;-61
2021/08/11 03:56:03;;;;;;;4.97;4.57;;;21.00;76.60;;;;;;4209726;28;20058;-60
2021/08/11 03:58:26;;;;;;;6.82;4.93;;;20.90;75.70;;;;;;4209563;28;20508;-61
2021/08/11 04:00:48;;;;;;;5.03;4.63;;;21.00;75.70;;;;;;4209550;28;20047;-61
2021/08/11 04:03:10;;;;;;;5.07;4.68;;;21.00;75.80;;;;;;4210825;28;20063;-61
2021/08/11 04:05:33;;;;;;;4.78;4.38;;;20.90;75.70;;;;;;4210087;28;20059;-61
2021/08/11 04:07:56;;;;;;;5.35;4.95;;;20.90;75.80;;;;;;4211087;28;20126;-61
2021/08/11 04:10:18;;;;;;;5.03;4.68;;;20.90;75.90;;;;;;4210728;28;20044;-61
2021/08/11 04:12:39;;;;;;;5.50;4.68;;;20.90;75.90;;;;;;4210810;28;20072;-61
2021/08/11 04:15:02;;;;;;;7.50;4.95;;;20.90;76.80;;;;;;4210658;28;20801;-61
2021/08/11 04:17:23;;;;;;;4.68;4.30;;;20.90;75.90;;;;;;4210700;28;20066;-61
2021/08/11 04:19:46;;;;;;;5.20;4.65;;;20.90;75.90;;;;;;4210540;28;20503;-61
2021/08/11 04:22:09;;;;;;;5.47;4.97;;;20.90;75.90;;;;;;4209899;28;20093;-61
2021/08/11 04:24:32;;;;;;;5.35;4.85;;;20.90;75.80;;;;;;4210523;28;20044;-61
2021/08/11 04:26:53;;;;;;;5.07;4.60;;;20.90;75.90;;;;;;4210501;28;20454;-61
2021/08/11 04:29:15;;;;;;;5.50;4.93;;;20.90;75.90;;;;;;4210572;28;20052;-61
2021/08/11 04:31:37;;;;;;;6.25;5.10;;;20.90;75.90;;;;;;4210264;28;20136;-60
2021/08/11 04:33:59;;;;;;;5.20;4.68;;;20.90;75.90;;;;;;4210752;28;20052;-61
2021/08/11 04:36:21;;;;;;;4.93;4.53;;;20.90;76.10;;;;;;4210445;28;20055;-61
2021/08/11 04:38:44;;;;;;;7.38;5.20;;;20.90;76.00;;;;;;4210068;28;20040;-62
2021/08/11 04:41:06;;;;;;;5.20;4.70;;;20.90;76.00;;;;;;4210136;28;20068;-61
2021/08/11 04:43:31;;;;;;;5.00;4.60;;;20.90;76.00;;;;;;4210171;28;20051;-61
2021/08/11 04:45:53;;;;;;;5.10;4.70;;;20.90;76.00;;;;;;4210396;28;20482;-61
2021/08/11 04:48:15;;;;;;;5.20;4.70;;;20.90;76.00;;;;;;4210038;28;20086;-61
2021/08/11 04:50:38;;;;;;;6.55;4.93;;;20.80;76.00;;;;;;4210253;28;20052;-61
2021/08/11 04:52:59;;;;;;;5.00;4.60;;;20.90;76.00;;;;;;4210074;28;20116;-61
2021/08/11 04:55:22;;;;;;;4.75;4.35;;;20.90;76.00;;;;;;4210209;28;20135;-59
2021/08/11 04:57:44;;;;;;;5.43;4.93;;;20.80;75.80;;;;;;4209960;28;20079;-61
2021/08/11 05:00:07;;;;;;;5.18;4.78;;;20.80;75.90;;;;;;4195146;28;20052;-61
2021/08/11 05:02:29;;;;;;;5.85;4.80;;;20.80;75.80;;;;;;4209833;28;20055;-60
2021/08/11 05:04:51;;;;;;;6.18;4.70;;;20.80;75.90;;;;;;4209435;28;20052;-60
2021/08/11 05:07:13;;;;;;;6.38;5.75;;;20.80;75.90;;;;;;4210116;28;21991;-61
2021/08/11 05:09:36;;;;;;;5.60;4.90;;;20.90;76.00;;;;;;4209765;28;20040;-61
2021/08/11 05:12:00;;;;;;;8.40;4.60;;;20.90;75.90;;;;;;4209298;28;20567;-61
2021/08/11 05:14:21;;;;;;;5.25;4.75;;;20.80;75.80;;;;;;4209253;28;20047;-61
2021/08/11 05:16:43;;;;;;;5.93;5.00;;;20.80;75.90;;;;;;4209587;28;20048;-61
2021/08/11 05:19:06;;;;;;;5.55;5.00;;;20.90;76.00;;;;;;4209255;28;20060;-61
2021/08/11 05:21:28;;;;;;;5.97;5.15;;;20.80;75.90;;;;;;4209703;28;20044;-61
2021/08/11 05:23:51;;;;;;;4.95;4.65;;;20.80;75.90;;;;;;4209742;28;20132;-61
2021/08/11 05:26:13;;;;;;;6.72;5.13;;;20.90;75.90;;;;;;4209573;28;20052;-61
2021/08/11 05:28:36;;;;;;;6.18;4.60;;;20.80;75.90;;;;;;4209560;28;20048;-61
2021/08/11 05:30:58;;;;;;;5.30;4.78;;;20.90;76.00;;;;;;4209040;28;20055;-61
2021/08/11 05:33:20;;;;;;;5.10;4.80;;;20.90;76.10;;;;;;4208882;28;20048;-61
2021/08/11 05:35:41;;;;;;;5.75;4.93;;;20.90;76.10;;;;;;4209343;28;20437;-61
2021/08/11 05:38:05;;;;;;;5.57;4.70;;;20.90;76.20;;;;;;4209539;28;20047;-62
2021/08/11 05:40:28;;;;;;;6.68;5.35;;;20.90;76.30;;;;;;4209615;28;20387;-62
2021/08/11 05:42:50;;;;;;;5.97;5.45;;;20.90;76.40;;;;;;4209311;28;20047;-62
2021/08/11 05:45:14;;;;;;;5.38;4.90;;;20.90;76.60;;;;;;4209021;28;20048;-62
2021/08/11 05:47:36;;;;;;;5.82;5.07;;;20.90;76.50;;;;;;4209368;28;20055;-58
2021/08/11 05:49:58;;;;;;;6.28;5.30;;;20.90;76.60;;;;;;4192598;28;20041;-62
2021/08/11 05:52:20;;;;;;;6.18;5.25;;;21.00;77.10;;;;;;4192533;28;20565;-61
2021/08/11 05:54:42;;;;;;;7.10;5.43;;;21.00;76.90;;;;;;4207140;28;20707;-62
2021/08/11 05:57:04;;;;;;;6.13;5.20;;;21.00;76.90;;;;;;4209283;28;20074;-61
2021/08/11 05:59:27;;;;;;;5.20;4.80;;;21.00;76.90;;;;;;4208044;28;20098;-63
2021/08/11 06:01:50;;;;;;;7.07;6.38;;;21.00;76.80;;;;;;4209443;28;20478;-62
2021/08/11 06:04:12;;;;;;;7.65;6.20;;;21.00;76.80;;;;;;4208894;28;20056;-62
2021/08/11 06:06:35;;;;;;;7.72;5.63;;;21.00;76.80;;;;;;4209125;28;20135;-62
2021/08/11 06:08:57;;;;;;;6.28;5.68;;;21.00;76.80;;;;;;4209023;28;20048;-62
2021/08/11 06:11:19;;;;;;;7.88;6.07;;;21.00;76.80;;;;;;4208966;28;20059;-62
2021/08/11 06:13:41;;;;;;;7.93;6.28;;;21.00;76.80;;;;;;4208693;28;20095;-62
2021/08/11 06:16:04;;;;;;;6.78;6.07;;;21.00;76.80;;;;;;4209003;28;20044;-62
2021/08/11 06:18:27;;;;;;;5.82;5.32;;;21.00;76.70;;;;;;4208606;28;20051;-62
2021/08/11 06:20:52;;;;;;;6.70;6.00;;;21.00;76.60;;;;;;4208767;28;20048;-62
2021/08/11 06:23:14;;;;;;;5.95;5.35;;;21.00;76.80;;;;;;4208679;28;20424;-62
2021/08/11 06:25:36;;;;;;;7.82;6.80;;;21.00;76.80;;;;;;4208782;28;20048;-62
2021/08/11 06:27:58;;;;;;;6.57;6.05;;;21.00;76.90;;;;;;4208400;28;20055;-62
2021/08/11 06:30:21;;;;;;;6.45;5.68;;;21.00;76.90;;;;;;4208148;28;20052;-61
2021/08/11 06:32:43;;;;;;;6.70;6.10;;;21.00;76.80;;;;;;4206913;28;20468;-61
2021/08/11 06:35:08;;;;;;;6.93;6.18;;;21.00;77.00;;;;;;4208364;28;20052;-61
2021/08/11 06:37:30;;;;;;;7.55;6.80;;;21.00;77.00;;;;;;4206481;28;20093;-62
2021/08/11 06:39:52;;;;;;;7.97;6.30;;;21.00;76.90;;;;;;4203749;28;20047;-62
2021/08/11 06:42:14;;;;;;;8.15;6.68;;;21.00;77.00;;;;;;4208310;28;20498;-61
2021/08/11 06:44:46;;;;;;;7.00;6.28;;;21.00;77.10;;;;;;4191634;28;20044;-61
2021/08/11 06:47:10;;;;;;;6.28;5.72;;;21.10;77.00;;;;;;4206619;28;20134;-62
2021/08/11 06:49:33;;;;;;;9.15;6.88;;;21.10;77.00;;;;;;4206909;28;20101;-61
2021/08/11 06:51:56;;;;;;;6.75;5.70;;;21.10;76.90;;;;;;4207941;28;20056;-61
2021/08/11 06:54:18;;;;;;;6.32;5.72;;;21.10;76.90;;;;;;4198393;28;20042;-61
2021/08/11 06:56:41;;;;;;;6.72;6.07;;;21.10;77.00;;;;;;4194331;28;20059;-61
2021/08/11 06:59:03;;;;;;;5.65;5.25;;;21.10;77.00;;;;;;4191297;28;20414;-61
2021/08/11 07:01:25;;;;;;;5.53;5.03;;;21.20;77.00;;;;;;4191604;28;20049;-61
2021/08/11 07:03:47;;;;;;;6.47;5.70;;;21.20;77.00;;;;;;4203922;28;21994;-61
2021/08/11 07:06:09;;;;;;;6.03;5.53;;;21.20;77.00;;;;;;4207855;28;20139;-61
2021/08/11 07:08:33;;;;;;;6.43;5.80;;;21.30;77.10;;;;;;4192382;28;20041;-62
2021/08/11 07:10:54;;;;;;;7.30;5.30;;;21.30;76.80;;;;;;4207957;28;20040;-62
2021/08/11 07:13:17;;;;;;;4.78;4.38;;;21.40;76.70;;;;;;4207316;28;20058;-61
2021/08/11 07:15:39;;;;;;;5.40;4.07;;;21.40;76.60;;;;;;4207958;28;20043;-61
2021/08/11 07:18:01;;;;;;;5.03;4.53;;;21.40;76.30;;;;;;4206473;28;20741;-61
2021/08/11 07:20:24;;;;;;;5.10;4.45;;;21.50;76.00;;;;;;4207905;28;20506;-61
2021/08/11 07:22:48;;;;;;;6.22;3.80;;;21.50;76.00;;;;;;4207945;28;20040;-61
2021/08/11 07:25:12;;;;;;;3.15;2.80;;;21.50;76.00;;;;;;4207253;28;20101;-61
2021/08/11 07:27:34;;;;;;;3.63;3.28;;;21.50;75.50;;;;;;4207421;28;20048;-61
2021/08/11 07:29:56;;;;;;;3.70;3.13;;;21.60;75.30;;;;;;4200185;28;20052;-61
2021/08/11 07:32:18;;;;;;;4.47;3.22;;;21.50;75.20;;;;;;4207887;28;20044;-62
2021/08/11 07:34:40;;;;;;;4.18;3.72;;;21.60;74.90;;;;;;4207836;28;20044;-61
2021/08/11 07:37:02;;;;;;;3.65;3.35;;;21.60;74.90;;;;;;4207880;28;20071;-61
2021/08/11 07:39:25;;;;;;;4.30;3.70;;;21.60;74.80;;;;;;4207555;28;20052;-61
2021/08/11 07:41:48;;;;;;;4.30;3.90;;;21.60;74.80;;;;;;4207773;28;20044;-61
2021/08/11 07:44:10;;;;;;;4.13;3.72;;;21.60;74.80;;;;;;4207612;28;20059;-61
2021/08/11 07:46:33;;;;;;;3.85;3.42;;;21.60;74.50;;;;;;4207656;28;20132;-61
2021/08/11 07:48:55;;;;;;;3.88;3.50;;;21.50;74.60;;;;;;4207426;28;20564;-61
2021/08/11 07:51:17;;;;;;;3.95;3.65;;;21.60;74.60;;;;;;4205858;28;20048;-61
2021/08/11 07:53:39;;;;;;;5.75;4.07;;;21.60;74.50;;;;;;4206975;28;20439;-62
2021/08/11 07:56:01;;;;;;;4.55;3.80;;;21.50;74.50;;;;;;4206839;28;20109;-62
2021/08/11 07:58:25;;;;;;;4.18;3.72;;;21.60;74.50;;;;;;4207054;28;20490;-61
2021/08/11 08:00:47;;;;;;;4.55;4.15;;;21.60;75.60;;;;;;4206584;28;20051;-62
2021/08/11 08:03:09;;;;;;;5.75;3.70;;;21.60;74.90;;;;;;4203088;28;20456;-63
2021/08/11 08:05:31;;;;;;;4.35;3.88;;;21.60;74.90;;;;;;4207360;28;20109;-62
2021/08/11 08:07:53;;;;;;;3.80;3.50;;;21.70;74.80;;;;;;4207419;28;20040;-62
2021/08/11 08:10:16;;;;;;;4.18;3.85;;;21.70;74.60;;;;;;4206768;28;20056;-62
2021/08/11 08:12:39;;;;;;;3.83;3.50;;;21.70;74.50;;;;;;4206372;28;20044;-62
2021/08/11 08:15:03;;;;;;;4.10;3.67;;;21.70;74.30;;;;;;4207428;28;20493;-61
2021/08/11 08:17:25;;;;;;;3.58;3.28;;;21.70;74.30;;;;;;4207125;28;20048;-61
2021/08/11 08:20:07;;;;;;;4.30;3.35;;;21.80;74.30;;;;;;4206485;28;20052;-61
2021/08/11 08:22:29;;;;;;;5.53;4.03;;;21.70;74.40;;;;;;4207293;28;20052;-61
2021/08/11 08:24:54;;;;;;;3.63;3.25;;;21.80;74.50;;;;;;4210494;28;20052;-60
2021/08/11 08:27:16;;;;;;;3.78;3.38;;;21.80;74.50;;;;;;4209527;28;20109;-61
2021/08/11 08:29:39;;;;;;;6.22;3.50;;;21.80;74.60;;;;;;4210575;28;20040;-61
2021/08/11 08:32:03;;;;;;;4.65;3.38;;;21.80;75.20;;;;;;4210504;28;20048;-61
2021/08/11 08:34:26;;;;;;;3.97;3.58;;;21.80;74.20;;;;;;4210421;28;20052;-61
2021/08/11 08:36:51;;;;;;;3.92;3.45;;;21.90;74.10;;;;;;4199715;28;20050;-61
2021/08/11 08:39:13;;;;;;;4.15;3.75;;;21.90;73.80;;;;;;4210144;28;20048;-61
2021/08/11 08:41:35;;;;;;;3.42;3.13;;;21.90;73.70;;;;;;4209675;28;20054;-61
2021/08/11 08:43:57;;;;;;;3.75;3.33;;;22.00;73.70;;;;;;4210110;28;20051;-61
2021/08/11 08:46:21;;;;;;;3.17;2.90;;;22.00;73.50;;;;;;4210035;28;20048;-61
2021/08/11 08:48:45;;;;;;;3.70;3.35;;;22.00;73.40;;;;;;4210463;28;20047;-61
2021/08/11 08:51:11;;;;;;;4.32;3.42;;;22.00;73.10;;;;;;4210302;28;20052;-61
2021/08/11 08:53:34;;;;;;;3.75;3.33;;;22.10;72.80;;;;;;4209643;28;20113;-61
2021/08/11 08:55:56;;;;;;;3.63;3.33;;;22.10;72.80;;;;;;4209122;28;20055;-64
2021/08/11 08:58:18;;;;;;;4.88;2.85;;;22.10;72.80;;;;;;4208361;28;20044;-66
2021/08/11 09:00:41;;;;;;;5.00;3.10;;;22.10;72.50;;;;;;4209085;28;20051;-62
2021/08/11 09:03:04;;;;;;;3.58;3.25;;;22.20;72.60;;;;;;4209637;28;20044;-62
2021/08/11 09:05:29;;;;;;;3.42;2.90;;;22.20;72.70;;;;;;4209596;28;20462;-61
2021/08/11 09:07:51;;;;;;;3.25;3.05;;;22.20;72.70;;;;;;4209841;28;20048;-64
2021/08/11 09:10:18;;;;;;;3.63;2.85;;;22.30;72.60;;;;;;4208958;28;20044;-61
2021/08/11 09:12:57;;;;;;;4.25;3.13;;;22.30;72.40;;;;;;4209042;28;20520;-61
2021/08/11 09:15:29;;;;;;;3.67;2.88;;;22.30;72.30;;;;;;4202009;28;20064;-61
2021/08/11 09:17:51;;;;;;;5.35;3.78;;;22.40;72.00;;;;;;4193941;28;20056;-62
2021/08/11 09:20:23;;;;;;;3.45;2.67;;;22.40;71.90;;;;;;4198638;28;20051;-62
2021/08/11 09:22:48;;;;;;;3.03;2.65;;;22.50;71.80;;;;;;4209459;28;20048;-62
2021/08/11 09:25:12;;;;;;;2.55;2.35;;;22.40;71.80;;;;;;4199085;28;20044;-62
2021/08/11 09:27:40;;;;;;;3.90;2.70;;;22.50;71.70;;;;;;4209244;28;20055;-62
2021/08/11 09:30:12;;;;;;;3.00;2.78;;;22.50;71.20;;;;;;4209688;28;20568;-60
2021/08/11 09:32:56;;;;;;;3.30;3.00;;;22.50;71.00;;;;;;4209309;28;20066;-60
2021/08/11 09:35:23;;;;;;;3.25;2.95;;;22.50;70.90;;;;;;4208133;28;20097;-60
2021/08/11 09:37:50;;;;;;;4.35;2.70;;;22.50;70.80;;;;;;4208306;28;20048;-60
2021/08/11 09:40:14;;;;;;;3.75;2.72;;;22.60;70.70;;;;;;4205569;28;21155;-60
2021/08/11 09:42:36;;;;;;;2.97;2.50;;;22.60;70.40;;;;;;4209268;28;20089;-60
2021/08/11 09:45:01;;;;;;;2.40;2.20;;;22.60;70.40;;;;;;4209336;28;20055;-60
2021/08/11 09:47:23;;;;;;;3.47;2.45;;;22.60;70.00;;;;;;4209127;28;20048;-60
2021/08/11 09:50:00;;;;;;;3.47;2.95;;;22.60;70.00;;;;;;4208810;28;20433;-61
2021/08/11 09:52:22;;;;;;;6.93;3.05;;;22.70;69.70;;;;;;4209060;28;20175;-60
2021/08/11 09:54:58;;;;;;;2.28;2.17;;;22.70;69.70;;;;;;4208837;28;20055;-61
2021/08/11 09:57:28;;;;;;;3.22;2.60;;;22.70;69.70;;;;;;4192348;28;20045;-60
2021/08/11 09:59:56;;;;;;;3.85;2.88;;;22.70;69.50;;;;;;4192014;28;20053;-60
2021/08/11 10:02:19;;;;;;;2.85;2.60;;;22.70;69.50;;;;;;4192398;28;20048;-60
2021/08/11 10:04:41;;;;;;;3.00;2.63;;;22.70;69.60;;;;;;4192250;28;20048;-60
2021/08/11 10:07:09;;;;;;;2.50;2.30;;;22.80;69.70;;;;;;4192356;28;20048;-61
2021/08/11 10:09:34;;;;;;;2.78;2.67;;;22.80;69.60;;;;;;4201695;28;20051;-60
2021/08/11 10:11:58;;;;;;;2.97;2.40;;;22.80;69.50;;;;;;4208702;28;20054;-60
2021/08/11 10:14:22;;;;;;;2.40;2.15;;;22.90;69.30;;;;;;4207792;28;20093;-61
2021/08/11 10:16:46;;;;;;;5.00;2.60;;;22.90;69.20;;;;;;4199495;28;20088;-62
2021/08/11 10:19:10;;;;;;;2.70;2.50;;;23.00;69.30;;;;;;4208626;28;20052;-61
2021/08/11 10:21:34;;;;;;;2.65;2.45;;;23.00;70.00;;;;;;4208803;28;20105;-60
2021/08/11 10:23:56;;;;;;;2.80;2.60;;;23.00;69.10;;;;;;4191824;28;20048;-63
2021/08/11 10:26:19;;;;;;;4.57;2.60;;;23.00;69.10;;;;;;4204419;28;20059;-60
2021/08/11 10:28:44;;;;;;;3.03;2.35;;;23.00;69.00;;;;;;4208404;28;20402;-60
2021/08/11 10:31:06;;;;;;;3.25;2.65;;;23.00;68.80;;;;;;4208614;28;20044;-61
2021/08/11 10:33:29;;;;;;;3.33;2.50;;;23.10;68.90;;;;;;4208786;28;20097;-61
2021/08/11 10:35:52;;;;;;;4.03;3.03;;;23.10;68.80;;;;;;4191931;28;20063;-61
2021/08/11 10:38:15;;;;;;;2.58;2.38;;;23.20;68.70;;;;;;4191770;28;20059;-61
2021/08/11 10:40:39;;;;;;;3.72;2.70;;;23.20;68.60;;;;;;4200030;28;20135;-61
2021/08/11 10:43:01;;;;;;;3.58;2.97;;;23.10;68.60;;;;;;4208479;28;20127;-61
2021/08/11 10:45:26;;;;;;;3.80;2.72;;;23.20;68.60;;;;;;4208048;28;20406;-62
2021/08/11 10:47:49;;;;;;;3.03;2.72;;;23.20;68.90;;;;;;4206725;28;20048;-62
2021/08/11 10:50:12;;;;;;;2.40;2.20;;;23.20;68.70;;;;;;4208305;28;20114;-60
2021/08/11 10:52:34;;;;;;;4.03;3.00;;;23.30;68.80;;;;;;4206431;28;20138;-61
2021/08/11 10:54:58;;;;;;;3.47;2.40;;;23.30;68.90;;;;;;4208078;28;20048;-61
2021/08/11 10:57:48;;;;;;;2.63;2.42;;;23.30;68.80;;;;;;4208185;28;20084;-62
2021/08/11 11:00:31;;;;;;;3.42;2.63;;;23.30;68.50;;;;;;4204545;28;20468;-62
2021/08/11 11:02:55;;;;;;;2.20;2.10;;;23.30;68.60;;;;;;4207835;28;20528;-61
2021/08/11 11:06:01;;;;;;;3.10;2.65;;;23.30;68.40;;;;;;4207831;28;20330;-61
2021/08/11 11:08:37;;;;;;;3.97;2.65;;;23.40;68.40;;;;;;4208005;28;20414;-61
2021/08/11 11:11:35;;;;;;;3.28;2.63;;;23.40;68.50;;;;;;4207882;28;20051;-62
2021/08/11 11:13:57;;;;;;;2.17;1.98;;;23.40;68.50;;;;;;4207694;28;20078;-61
2021/08/11 11:16:20;;;;;;;2.92;2.72;;;23.40;68.40;;;;;;4207762;28;20044;-61
2021/08/11 11:19:07;;;;;;;3.55;2.50;;;23.40;68.60;;;;;;4207818;28;20068;-61
2021/08/11 11:21:33;;;;;;;3.65;2.70;;;23.50;68.40;;;;;;4207940;28;20044;-61
2021/08/11 11:23:55;;;;;;;2.67;2.45;;;23.50;68.30;;;;;;4207541;28;20055;-61
2021/08/11 11:26:18;;;;;;;4.70;2.90;;;23.50;68.50;;;;;;4205129;28;20430;-60
2021/08/11 11:29:08;;;;;;;3.40;2.70;;;23.50;69.30;;;;;;4207945;28;20059;-61
2021/08/11 11:31:32;;;;;;;3.30;3.00;;;23.50;68.40;;;;;;4171166;28;20139;-61
2021/08/11 11:33:55;;;;;;;2.70;2.50;;;23.50;68.50;;;;;;4207986;28;20105;-60
2021/08/11 11:36:22;;;;;;;2.13;2.03;;;23.50;68.30;;;;;;4207150;28;20044;-61
2021/08/11 11:39:02;;;;;;;4.18;2.63;;;23.60;68.50;;;;;;4197044;28;20056;-61
2021/08/11 11:41:24;;;;;;;2.67;2.47;;;23.60;68.40;;;;;;4205832;28;20048;-62
2021/08/11 11:43:47;;;;;;;3.40;2.30;;;23.60;68.20;;;;;;4196778;28;20470;-61
2021/08/11 11:46:09;;;;;;;2.35;2.22;;;23.60;68.20;;;;;;4191078;28;20132;-61
2021/08/11 11:48:31;;;;;;;3.47;2.38;;;23.60;68.10;;;;;;4190881;28;20056;-61
2021/08/11 11:51:02;;;;;;;3.25;2.22;;;23.60;68.20;;;;;;4206829;28;20056;-62
2021/08/11 11:53:30;;;;;;;2.38;2.28;;;23.60;67.80;;;;;;4207386;28;20486;-61
2021/08/11 11:55:53;;;;;;;2.67;2.42;;;23.70;68.00;;;;;;4200018;28;20052;-61
2021/08/11 11:58:16;;;;;;;3.55;2.70;;;23.70;68.10;;;;;;4208075;28;20048;-61
2021/08/11 12:00:38;;;;;;;2.97;2.60;;;23.70;67.90;;;;;;4210849;28;20040;-61
2021/08/11 12:03:02;;;;;;;3.35;2.85;;;23.70;68.10;;;;;;4211032;28;20077;-61
2021/08/11 12:05:28;;;;;;;2.95;2.53;;;23.70;68.20;;;;;;4210836;28;20051;-60
2021/08/11 12:07:52;;;;;;;3.00;2.53;;;23.70;68.00;;;;;;4210441;28;20109;-60
2021/08/11 12:10:23;;;;;;;2.70;2.53;;;23.80;67.80;;;;;;4210224;28;20056;-60
2021/08/11 12:12:59;;;;;;;2.88;2.67;;;23.80;68.00;;;;;;4203264;28;20051;-60
2021/08/11 12:15:22;;;;;;;2.60;2.40;;;23.80;68.00;;;;;;4210370;28;20060;-59
2021/08/11 12:17:44;;;;;;;3.97;2.72;;;23.80;67.80;;;;;;4210980;28;20051;-60
2021/08/11 12:20:25;;;;;;;3.33;2.70;;;23.80;67.80;;;;;;4210630;28;20048;-61
2021/08/11 12:22:47;;;;;;;;;;;23.80;67.80;;;;;;4211149;28;20616;-60
2021/08/11 12:25:22;;;;;;;5.00;3.03;;;23.90;68.00;;;;;;4209852;28;20562;-60
2021/08/11 12:28:05;;;;;;;2.42;2.08;;;23.80;67.90;;;;;;4209943;28;20055;-61
2021/08/11 12:30:28;;;;;;;3.00;2.65;;;23.80;68.50;;;;;;4208557;28;20054;-61
2021/08/11 12:32:50;;;;;;;3.00;2.60;;;23.80;68.10;;;;;;4193930;28;20461;-60
2021/08/11 12:35:13;;;;;;;2.65;2.30;;;23.80;68.10;;;;;;4193616;28;20060;-61